sensor_id;sensor_type;location;lat;lon;timestamp;P1;P2;P0
42410;PMS5003;28056;51.112;0.984;2022-09-12T00:00:11;18;17;
42410;PMS5003;28056;51.112;0.984;2022-09-12T00:04:53;21;21;
42410;PMS5003;28056;51.112;0.984;2022-09-12T00:07:20;21;19;
42410;PMS5003;28056;51.112;0.984;2022-09-12T00:09:47;21;21;
42410;PMS5003;28056;51.112;0.984;2022-09-12T00:12:15;22;19;
42410;PMS5003;28056;51.112;0.984;2022-09-12T00:14:42;24;21;
42410;PMS5003;28056;51.112;0.984;2022-09-12T00:17:09;21;20;
42410;PMS5003;28056;51.112;0.984;2022-09-12T00:19:37;19;16;
42410;PMS5003;28056;51.112;0.984;2022-09-12T00:22:05;23;19;
42410;PMS5003;28056;51.112;0.984;2022-09-12T00:24:32;25;22;
42410;PMS5003;28056;51.112;0.984;2022-09-12T00:26:59;19;19;
42410;PMS5003;28056;51.112;0.984;2022-09-12T00:29:27;19;19;
42410;PMS5003;28056;51.112;0.984;2022-09-12T00:31:55;22;20;
42410;PMS5003;28056;51.112;0.984;2022-09-12T00:34:22;16;16;
42410;PMS5003;28056;51.112;0.984;2022-09-12T00:36:49;27;22;
42410;PMS5003;28056;51.112;0.984;2022-09-12T00:39:16;22;22;
42410;PMS5003;28056;51.112;0.984;2022-09-12T00:41:43;22;20;
42410;PMS5003;28056;51.112;0.984;2022-09-12T00:44:45;23;22;
42410;PMS5003;28056;51.112;0.984;2022-09-12T00:47:16;24;20;
42410;PMS5003;28056;51.112;0.984;2022-09-12T00:49:49;28;25;
42410;PMS5003;28056;51.112;0.984;2022-09-12T00:52:21;23;21;
42410;PMS5003;28056;51.112;0.984;2022-09-12T00:54:54;22;21;
42410;PMS5003;28056;51.112;0.984;2022-09-12T00:57:27;23;21;
42410;PMS5003;28056;51.112;0.984;2022-09-12T00:59:59;24;23;
42410;PMS5003;28056;51.112;0.984;2022-09-12T01:02:32;27;25;
42410;PMS5003;28056;51.112;0.984;2022-09-12T01:04:59;23;20;
42410;PMS5003;28056;51.112;0.984;2022-09-12T01:07:27;24;22;
42410;PMS5003;28056;51.112;0.984;2022-09-12T01:09:54;24;20;
42410;PMS5003;28056;51.112;0.984;2022-09-12T01:12:21;23;21;
42410;PMS5003;28056;51.112;0.984;2022-09-12T01:14:49;19;19;
42410;PMS5003;28056;51.112;0.984;2022-09-12T01:17:17;25;22;
42410;PMS5003;28056;51.112;0.984;2022-09-12T01:19:56;23;22;
42410;PMS5003;28056;51.112;0.984;2022-09-12T01:23:19;22;22;
42410;PMS5003;28056;51.112;0.984;2022-09-12T01:26:11;23;21;
42410;PMS5003;28056;51.112;0.984;2022-09-12T01:28:55;26;22;
42410;PMS5003;28056;51.112;0.984;2022-09-12T01:31:40;24;19;
42410;PMS5003;28056;51.112;0.984;2022-09-12T01:34:17;20;18;
42410;PMS5003;28056;51.112;0.984;2022-09-12T01:36:51;18;18;
42410;PMS5003;28056;51.112;0.984;2022-09-12T01:39:31;21;20;
42410;PMS5003;28056;51.112;0.984;2022-09-12T01:42:07;19;19;
42410;PMS5003;28056;51.112;0.984;2022-09-12T01:44:44;21;20;
42410;PMS5003;28056;51.112;0.984;2022-09-12T01:47:21;24;23;
42410;PMS5003;28056;51.112;0.984;2022-09-12T01:49:56;25;23;
42410;PMS5003;28056;51.112;0.984;2022-09-12T01:52:27;20;19;
42410;PMS5003;28056;51.112;0.984;2022-09-12T01:55:00;15;14;
42410;PMS5003;28056;51.112;0.984;2022-09-12T01:57:33;22;21;
42410;PMS5003;28056;51.112;0.984;2022-09-12T02:00:05;20;20;
42410;PMS5003;28056;51.112;0.984;2022-09-12T02:02:36;19;19;
42410;PMS5003;28056;51.112;0.984;2022-09-12T02:05:08;14;14;
42410;PMS5003;28056;51.112;0.984;2022-09-12T02:07:39;22;20;
42410;PMS5003;28056;51.112;0.984;2022-09-12T02:10:13;20;19;
42410;PMS5003;28056;51.112;0.984;2022-09-12T02:12:45;18;18;
42410;PMS5003;28056;51.112;0.984;2022-09-12T02:15:16;20;17;
42410;PMS5003;28056;51.112;0.984;2022-09-12T02:17:48;22;21;
42410;PMS5003;28056;51.112;0.984;2022-09-12T02:20:19;24;22;
42410;PMS5003;28056;51.112;0.984;2022-09-12T02:22:51;22;21;
42410;PMS5003;28056;51.112;0.984;2022-09-12T02:25:21;17;15;
42410;PMS5003;28056;51.112;0.984;2022-09-12T02:27:52;18;18;
42410;PMS5003;28056;51.112;0.984;2022-09-12T02:30:24;21;20;
42410;PMS5003;28056;51.112;0.984;2022-09-12T02:32:57;21;21;
42410;PMS5003;28056;51.112;0.984;2022-09-12T02:35:32;20;20;
42410;PMS5003;28056;51.112;0.984;2022-09-12T02:38:10;17;17;
42410;PMS5003;28056;51.112;0.984;2022-09-12T02:40:43;17;12;
42410;PMS5003;28056;51.112;0.984;2022-09-12T02:43:10;24;19;
42410;PMS5003;28056;51.112;0.984;2022-09-12T02:45:37;19;18;
42410;PMS5003;28056;51.112;0.984;2022-09-12T02:48:07;20;19;
42410;PMS5003;28056;51.112;0.984;2022-09-12T02:50:38;29;22;
42410;PMS5003;28056;51.112;0.984;2022-09-12T02:53:06;21;19;
42410;PMS5003;28056;51.112;0.984;2022-09-12T02:55:35;23;20;
42410;PMS5003;28056;51.112;0.984;2022-09-12T02:58:05;21;20;
42410;PMS5003;28056;51.112;0.984;2022-09-12T03:00:36;17;17;
42410;PMS5003;28056;51.112;0.984;2022-09-12T03:03:19;18;18;
42410;PMS5003;28056;51.112;0.984;2022-09-12T03:05:58;20;20;
42410;PMS5003;28056;51.112;0.984;2022-09-12T03:08:33;20;18;
42410;PMS5003;28056;51.112;0.984;2022-09-12T03:11:21;20;18;
42410;PMS5003;28056;51.112;0.984;2022-09-12T03:14:00;17;16;
42410;PMS5003;28056;51.112;0.984;2022-09-12T03:16:40;20;17;
42410;PMS5003;28056;51.112;0.984;2022-09-12T03:19:14;21;19;
42410;PMS5003;28056;51.112;0.984;2022-09-12T03:21:51;18;16;
42410;PMS5003;28056;51.112;0.984;2022-09-12T03:24:28;15;15;
42410;PMS5003;28056;51.112;0.984;2022-09-12T03:27:00;19;16;
42410;PMS5003;28056;51.112;0.984;2022-09-12T03:29:36;16;14;
42410;PMS5003;28056;51.112;0.984;2022-09-12T03:32:06;19;19;
42410;PMS5003;28056;51.112;0.984;2022-09-12T03:34:33;16;16;
42410;PMS5003;28056;51.112;0.984;2022-09-12T03:37:01;17;14;
42410;PMS5003;28056;51.112;0.984;2022-09-12T03:39:28;23;19;
42410;PMS5003;28056;51.112;0.984;2022-09-12T03:41:56;20;20;
42410;PMS5003;28056;51.112;0.984;2022-09-12T03:44:23;18;17;
42410;PMS5003;28056;51.112;0.984;2022-09-12T03:46:51;19;17;
42410;PMS5003;28056;51.112;0.984;2022-09-12T03:49:18;19;18;
42410;PMS5003;28056;51.112;0.984;2022-09-12T03:51:46;15;15;
42410;PMS5003;28056;51.112;0.984;2022-09-12T03:54:13;16;16;
42410;PMS5003;28056;51.112;0.984;2022-09-12T03:56:40;16;15;
42410;PMS5003;28056;51.112;0.984;2022-09-12T03:59:08;19;19;
42410;PMS5003;28056;51.112;0.984;2022-09-12T04:01:36;15;15;
42410;PMS5003;28056;51.112;0.984;2022-09-12T04:04:03;16;16;
42410;PMS5003;28056;51.112;0.984;2022-09-12T04:06:31;20;17;
42410;PMS5003;28056;51.112;0.984;2022-09-12T04:08:59;16;13;
42410;PMS5003;28056;51.112;0.984;2022-09-12T04:11:27;12;12;
42410;PMS5003;28056;51.112;0.984;2022-09-12T04:13:55;20;18;
42410;PMS5003;28056;51.112;0.984;2022-09-12T04:16:22;15;15;
42410;PMS5003;28056;51.112;0.984;2022-09-12T04:18:50;17;16;
42410;PMS5003;28056;51.112;0.984;2022-09-12T04:21:18;15;15;
42410;PMS5003;28056;51.112;0.984;2022-09-12T04:23:46;16;16;
42410;PMS5003;28056;51.112;0.984;2022-09-12T04:26:14;16;15;
42410;PMS5003;28056;51.112;0.984;2022-09-12T04:28:42;19;18;
42410;PMS5003;28056;51.112;0.984;2022-09-12T04:31:11;17;17;
42410;PMS5003;28056;51.112;0.984;2022-09-12T04:33:40;12;12;
42410;PMS5003;28056;51.112;0.984;2022-09-12T04:36:09;18;16;
42410;PMS5003;28056;51.112;0.984;2022-09-12T04:38:38;12;11;
42410;PMS5003;28056;51.112;0.984;2022-09-12T04:41:09;15;14;
42410;PMS5003;28056;51.112;0.984;2022-09-12T04:43:37;15;15;
42410;PMS5003;28056;51.112;0.984;2022-09-12T04:46:05;13;13;
42410;PMS5003;28056;51.112;0.984;2022-09-12T04:48:33;15;12;
42410;PMS5003;28056;51.112;0.984;2022-09-12T04:51:09;18;12;
42410;PMS5003;28056;51.112;0.984;2022-09-12T04:53:38;12;12;
42410;PMS5003;28056;51.112;0.984;2022-09-12T04:56:07;11;11;
42410;PMS5003;28056;51.112;0.984;2022-09-12T04:58:36;18;16;
42410;PMS5003;28056;51.112;0.984;2022-09-12T05:01:05;16;16;
42410;PMS5003;28056;51.112;0.984;2022-09-12T05:03:33;13;13;
42410;PMS5003;28056;51.112;0.984;2022-09-12T05:06:01;13;13;
42410;PMS5003;28056;51.112;0.984;2022-09-12T05:08:29;11;10;
42410;PMS5003;28056;51.112;0.984;2022-09-12T05:10:56;17;14;
42410;PMS5003;28056;51.112;0.984;2022-09-12T05:13:28;14;12;
42410;PMS5003;28056;51.112;0.984;2022-09-12T05:15:56;12;12;
42410;PMS5003;28056;51.112;0.984;2022-09-12T05:18:25;14;14;
42410;PMS5003;28056;51.112;0.984;2022-09-12T05:20:52;11;11;
42410;PMS5003;28056;51.112;0.984;2022-09-12T05:23:20;12;12;
42410;PMS5003;28056;51.112;0.984;2022-09-12T05:25:48;12;11;
42410;PMS5003;28056;51.112;0.984;2022-09-12T05:28:15;13;13;
42410;PMS5003;28056;51.112;0.984;2022-09-12T05:30:42;10;10;
42410;PMS5003;28056;51.112;0.984;2022-09-12T05:33:10;10;10;
42410;PMS5003;28056;51.112;0.984;2022-09-12T05:35:38;14;12;
42410;PMS5003;28056;51.112;0.984;2022-09-12T05:38:06;10;10;
42410;PMS5003;28056;51.112;0.984;2022-09-12T05:40:33;10;10;
42410;PMS5003;28056;51.112;0.984;2022-09-12T05:43:01;11;10;
42410;PMS5003;28056;51.112;0.984;2022-09-12T05:45:29;8;7;
42410;PMS5003;28056;51.112;0.984;2022-09-12T05:47:56;9;8;
42410;PMS5003;28056;51.112;0.984;2022-09-12T05:50:24;10;10;
42410;PMS5003;28056;51.112;0.984;2022-09-12T05:52:51;10;10;
42410;PMS5003;28056;51.112;0.984;2022-09-12T05:55:19;9;9;
42410;PMS5003;28056;51.112;0.984;2022-09-12T05:57:47;10;10;
42410;PMS5003;28056;51.112;0.984;2022-09-12T06:00:15;8;8;
42410;PMS5003;28056;51.112;0.984;2022-09-12T06:02:43;9;9;
42410;PMS5003;28056;51.112;0.984;2022-09-12T06:05:16;11;11;
42410;PMS5003;28056;51.112;0.984;2022-09-12T06:07:44;10;8;
42410;PMS5003;28056;51.112;0.984;2022-09-12T06:10:12;12;10;
42410;PMS5003;28056;51.112;0.984;2022-09-12T06:12:40;9;9;
42410;PMS5003;28056;51.112;0.984;2022-09-12T06:15:08;10;9;
42410;PMS5003;28056;51.112;0.984;2022-09-12T06:17:36;8;8;
42410;PMS5003;28056;51.112;0.984;2022-09-12T06:20:03;7;7;
42410;PMS5003;28056;51.112;0.984;2022-09-12T06:22:32;8;8;
42410;PMS5003;28056;51.112;0.984;2022-09-12T06:24:59;8;8;
42410;PMS5003;28056;51.112;0.984;2022-09-12T06:27:27;8;8;
42410;PMS5003;28056;51.112;0.984;2022-09-12T06:29:54;12;11;
42410;PMS5003;28056;51.112;0.984;2022-09-12T06:32:21;13;10;
42410;PMS5003;28056;51.112;0.984;2022-09-12T06:34:49;10;9;
42410;PMS5003;28056;51.112;0.984;2022-09-12T06:37:16;8;8;
42410;PMS5003;28056;51.112;0.984;2022-09-12T06:39:44;9;9;
42410;PMS5003;28056;51.112;0.984;2022-09-12T06:42:11;8;8;
42410;PMS5003;28056;51.112;0.984;2022-09-12T06:44:39;9;8;
42410;PMS5003;28056;51.112;0.984;2022-09-12T06:47:06;8;8;
42410;PMS5003;28056;51.112;0.984;2022-09-12T06:49:34;11;9;
42410;PMS5003;28056;51.112;0.984;2022-09-12T06:52:02;9;9;
42410;PMS5003;28056;51.112;0.984;2022-09-12T06:54:30;8;8;
42410;PMS5003;28056;51.112;0.984;2022-09-12T06:56:57;8;8;
42410;PMS5003;28056;51.112;0.984;2022-09-12T06:59:25;9;9;
42410;PMS5003;28056;51.112;0.984;2022-09-12T07:01:53;8;8;
42410;PMS5003;28056;51.112;0.984;2022-09-12T07:04:20;7;7;
42410;PMS5003;28056;51.112;0.984;2022-09-12T07:06:48;8;8;
42410;PMS5003;28056;51.112;0.984;2022-09-12T07:09:15;7;7;
42410;PMS5003;28056;51.112;0.984;2022-09-12T07:11:43;8;8;
42410;PMS5003;28056;51.112;0.984;2022-09-12T07:14:11;9;7;
42410;PMS5003;28056;51.112;0.984;2022-09-12T07:16:40;9;8;
42410;PMS5003;28056;51.112;0.984;2022-09-12T07:19:08;8;8;
42410;PMS5003;28056;51.112;0.984;2022-09-12T07:21:37;8;8;
42410;PMS5003;28056;51.112;0.984;2022-09-12T07:24:04;8;8;
42410;PMS5003;28056;51.112;0.984;2022-09-12T07:26:33;8;8;
42410;PMS5003;28056;51.112;0.984;2022-09-12T07:29:00;11;8;
42410;PMS5003;28056;51.112;0.984;2022-09-12T07:31:28;8;7;
42410;PMS5003;28056;51.112;0.984;2022-09-12T07:33:55;10;7;
42410;PMS5003;28056;51.112;0.984;2022-09-12T07:36:23;7;7;
42410;PMS5003;28056;51.112;0.984;2022-09-12T07:38:54;9;7;
42410;PMS5003;28056;51.112;0.984;2022-09-12T07:41:23;8;6;
42410;PMS5003;28056;51.112;0.984;2022-09-12T07:43:52;7;7;
42410;PMS5003;28056;51.112;0.984;2022-09-12T07:46:20;9;9;
42410;PMS5003;28056;51.112;0.984;2022-09-12T07:48:49;11;10;
42410;PMS5003;28056;51.112;0.984;2022-09-12T07:51:17;13;11;
42410;PMS5003;28056;51.112;0.984;2022-09-12T07:53:46;12;12;
42410;PMS5003;28056;51.112;0.984;2022-09-12T07:56:14;13;13;
42410;PMS5003;28056;51.112;0.984;2022-09-12T07:58:42;14;12;
42410;PMS5003;28056;51.112;0.984;2022-09-12T08:01:11;10;10;
42410;PMS5003;28056;51.112;0.984;2022-09-12T08:03:40;15;15;
42410;PMS5003;28056;51.112;0.984;2022-09-12T08:06:10;13;12;
42410;PMS5003;28056;51.112;0.984;2022-09-12T08:08:39;13;12;
42410;PMS5003;28056;51.112;0.984;2022-09-12T08:11:07;12;12;
42410;PMS5003;28056;51.112;0.984;2022-09-12T08:13:36;16;14;
42410;PMS5003;28056;51.112;0.984;2022-09-12T08:16:05;15;15;
42410;PMS5003;28056;51.112;0.984;2022-09-12T08:18:34;12;12;
42410;PMS5003;28056;51.112;0.984;2022-09-12T08:21:04;12;11;
42410;PMS5003;28056;51.112;0.984;2022-09-12T08:23:33;12;11;
42410;PMS5003;28056;51.112;0.984;2022-09-12T08:26:02;11;11;
42410;PMS5003;28056;51.112;0.984;2022-09-12T08:28:30;10;10;
42410;PMS5003;28056;51.112;0.984;2022-09-12T08:30:59;15;13;
42410;PMS5003;28056;51.112;0.984;2022-09-12T08:33:27;10;10;
42410;PMS5003;28056;51.112;0.984;2022-09-12T08:36:00;13;13;
42410;PMS5003;28056;51.112;0.984;2022-09-12T08:38:29;14;13;
42410;PMS5003;28056;51.112;0.984;2022-09-12T08:40:59;14;10;
42410;PMS5003;28056;51.112;0.984;2022-09-12T08:43:37;12;12;
42410;PMS5003;28056;51.112;0.984;2022-09-12T08:46:17;10;10;
42410;PMS5003;28056;51.112;0.984;2022-09-12T08:48:48;14;13;
42410;PMS5003;28056;51.112;0.984;2022-09-12T08:51:17;13;13;
42410;PMS5003;28056;51.112;0.984;2022-09-12T08:53:47;14;14;
42410;PMS5003;28056;51.112;0.984;2022-09-12T08:56:19;11;10;
42410;PMS5003;28056;51.112;0.984;2022-09-12T08:58:46;13;12;
42410;PMS5003;28056;51.112;0.984;2022-09-12T09:01:16;14;14;
42410;PMS5003;28056;51.112;0.984;2022-09-12T09:03:56;11;11;
42410;PMS5003;28056;51.112;0.984;2022-09-12T09:06:41;13;11;
42410;PMS5003;28056;51.112;0.984;2022-09-12T09:09:22;11;11;
42410;PMS5003;28056;51.112;0.984;2022-09-12T09:12:02;13;13;
42410;PMS5003;28056;51.112;0.984;2022-09-12T09:14:47;12;12;
42410;PMS5003;28056;51.112;0.984;2022-09-12T09:17:31;10;10;
42410;PMS5003;28056;51.112;0.984;2022-09-12T09:20:06;14;12;
42410;PMS5003;28056;51.112;0.984;2022-09-12T09:22:43;13;11;
42410;PMS5003;28056;51.112;0.984;2022-09-12T09:25:16;10;10;
42410;PMS5003;28056;51.112;0.984;2022-09-12T09:27:49;15;11;
42410;PMS5003;28056;51.112;0.984;2022-09-12T09:30:23;11;10;
42410;PMS5003;28056;51.112;0.984;2022-09-12T09:32:51;10;10;
42410;PMS5003;28056;51.112;0.984;2022-09-12T09:35:22;9;9;
42410;PMS5003;28056;51.112;0.984;2022-09-12T09:38:07;10;10;
42410;PMS5003;28056;51.112;0.984;2022-09-12T09:40:49;11;10;
42410;PMS5003;28056;51.112;0.984;2022-09-12T09:43:25;12;12;
42410;PMS5003;28056;51.112;0.984;2022-09-12T09:45:53;10;10;
42410;PMS5003;28056;51.112;0.984;2022-09-12T09:48:22;11;11;
42410;PMS5003;28056;51.112;0.984;2022-09-12T09:50:55;10;10;
42410;PMS5003;28056;51.112;0.984;2022-09-12T09:53:27;11;11;
42410;PMS5003;28056;51.112;0.984;2022-09-12T09:56:00;12;10;
42410;PMS5003;28056;51.112;0.984;2022-09-12T09:58:33;11;11;
42410;PMS5003;28056;51.112;0.984;2022-09-12T10:01:03;10;10;
42410;PMS5003;28056;51.112;0.984;2022-09-12T10:03:32;12;12;
42410;PMS5003;28056;51.112;0.984;2022-09-12T10:06:05;11;8;
42410;PMS5003;28056;51.112;0.984;2022-09-12T10:08:48;14;9;
42410;PMS5003;28056;51.112;0.984;2022-09-12T10:11:17;12;9;
42410;PMS5003;28056;51.112;0.984;2022-09-12T10:13:51;8;8;
42410;PMS5003;28056;51.112;0.984;2022-09-12T10:16:22;8;8;
42410;PMS5003;28056;51.112;0.984;2022-09-12T10:18:51;9;9;
42410;PMS5003;28056;51.112;0.984;2022-09-12T10:21:23;9;7;
42410;PMS5003;28056;51.112;0.984;2022-09-12T10:24:04;10;10;
42410;PMS5003;28056;51.112;0.984;2022-09-12T10:26:43;10;10;
42410;PMS5003;28056;51.112;0.984;2022-09-12T10:29:15;10;10;
42410;PMS5003;28056;51.112;0.984;2022-09-12T10:31:48;10;10;
42410;PMS5003;28056;51.112;0.984;2022-09-12T10:34:20;9;9;
42410;PMS5003;28056;51.112;0.984;2022-09-12T10:36:51;10;10;
42410;PMS5003;28056;51.112;0.984;2022-09-12T10:39:24;10;10;
42410;PMS5003;28056;51.112;0.984;2022-09-12T10:41:52;14;11;
42410;PMS5003;28056;51.112;0.984;2022-09-12T10:44:23;8;8;
42410;PMS5003;28056;51.112;0.984;2022-09-12T10:46:52;11;11;
42410;PMS5003;28056;51.112;0.984;2022-09-12T10:49:22;10;10;
42410;PMS5003;28056;51.112;0.984;2022-09-12T10:51:52;11;11;
42410;PMS5003;28056;51.112;0.984;2022-09-12T10:54:21;11;10;
42410;PMS5003;28056;51.112;0.984;2022-09-12T10:56:55;10;10;
42410;PMS5003;28056;51.112;0.984;2022-09-12T10:59:40;10;9;
42410;PMS5003;28056;51.112;0.984;2022-09-12T11:02:25;9;9;
42410;PMS5003;28056;51.112;0.984;2022-09-12T11:04:57;10;10;
42410;PMS5003;28056;51.112;0.984;2022-09-12T11:07:37;9;9;
42410;PMS5003;28056;51.112;0.984;2022-09-12T11:10:13;13;11;
42410;PMS5003;28056;51.112;0.984;2022-09-12T11:12:49;7;7;
42410;PMS5003;28056;51.112;0.984;2022-09-12T11:15:33;12;10;
42410;PMS5003;28056;51.112;0.984;2022-09-12T11:18:12;10;8;
42410;PMS5003;28056;51.112;0.984;2022-09-12T11:20:51;11;11;
42410;PMS5003;28056;51.112;0.984;2022-09-12T11:23:33;7;7;
42410;PMS5003;28056;51.112;0.984;2022-09-12T11:26:21;5;5;
42410;PMS5003;28056;51.112;0.984;2022-09-12T11:29:00;10;9;
42410;PMS5003;28056;51.112;0.984;2022-09-12T11:31:43;9;7;
42410;PMS5003;28056;51.112;0.984;2022-09-12T11:34:28;5;5;
42410;PMS5003;28056;51.112;0.984;2022-09-12T11:37:14;8;8;
42410;PMS5003;28056;51.112;0.984;2022-09-12T11:39:54;9;8;
42410;PMS5003;28056;51.112;0.984;2022-09-12T11:42:32;9;9;
42410;PMS5003;28056;51.112;0.984;2022-09-12T11:45:08;9;9;
42410;PMS5003;28056;51.112;0.984;2022-09-12T11:47:43;12;10;
42410;PMS5003;28056;51.112;0.984;2022-09-12T11:50:16;8;8;
42410;PMS5003;28056;51.112;0.984;2022-09-12T11:52:48;11;10;
42410;PMS5003;28056;51.112;0.984;2022-09-12T11:55:18;12;9;
42410;PMS5003;28056;51.112;0.984;2022-09-12T11:57:51;8;8;
42410;PMS5003;28056;51.112;0.984;2022-09-12T12:00:21;10;10;
42410;PMS5003;28056;51.112;0.984;2022-09-12T12:02:54;10;10;
42410;PMS5003;28056;51.112;0.984;2022-09-12T12:05:30;11;10;
42410;PMS5003;28056;51.112;0.984;2022-09-12T12:08:05;7;7;
42410;PMS5003;28056;51.112;0.984;2022-09-12T12:10:34;10;10;
42410;PMS5003;28056;51.112;0.984;2022-09-12T12:13:06;10;9;
42410;PMS5003;28056;51.112;0.984;2022-09-12T12:15:44;7;7;
42410;PMS5003;28056;51.112;0.984;2022-09-12T12:18:14;10;10;
42410;PMS5003;28056;51.112;0.984;2022-09-12T12:20:44;10;10;
42410;PMS5003;28056;51.112;0.984;2022-09-12T12:23:23;10;8;
42410;PMS5003;28056;51.112;0.984;2022-09-12T12:25:53;9;9;
42410;PMS5003;28056;51.112;0.984;2022-09-12T12:28:54;9;9;
42410;PMS5003;28056;51.112;0.984;2022-09-12T12:31:24;8;7;
42410;PMS5003;28056;51.112;0.984;2022-09-12T12:33:53;10;9;
42410;PMS5003;28056;51.112;0.984;2022-09-12T12:36:29;13;11;
42410;PMS5003;28056;51.112;0.984;2022-09-12T12:39:02;8;8;
42410;PMS5003;28056;51.112;0.984;2022-09-12T12:42:56;11;11;
42410;PMS5003;28056;51.112;0.984;2022-09-12T12:46:01;10;10;
42410;PMS5003;28056;51.112;0.984;2022-09-12T12:48:51;8;8;
42410;PMS5003;28056;51.112;0.984;2022-09-12T12:51:28;8;8;
42410;PMS5003;28056;51.112;0.984;2022-09-12T12:54:03;8;6;
42410;PMS5003;28056;51.112;0.984;2022-09-12T12:56:33;11;10;
42410;PMS5003;28056;51.112;0.984;2022-09-12T12:59:12;8;8;
42410;PMS5003;28056;51.112;0.984;2022-09-12T13:01:47;7;7;
42410;PMS5003;28056;51.112;0.984;2022-09-12T13:04:19;10;9;
42410;PMS5003;28056;51.112;0.984;2022-09-12T13:06:55;7;5;
42410;PMS5003;28056;51.112;0.984;2022-09-12T13:09:26;5;4;
42410;PMS5003;28056;51.112;0.984;2022-09-12T13:11:59;5;5;
42410;PMS5003;28056;51.112;0.984;2022-09-12T13:14:33;5;4;
42410;PMS5003;28056;51.112;0.984;2022-09-12T13:17:14;5;5;
42410;PMS5003;28056;51.112;0.984;2022-09-12T13:19:48;4;4;
42410;PMS5003;28056;51.112;0.984;2022-09-12T13:22:17;6;5;
42410;PMS5003;28056;51.112;0.984;2022-09-12T13:24:48;5;5;
42410;PMS5003;28056;51.112;0.984;2022-09-12T13:27:17;5;5;
42410;PMS5003;28056;51.112;0.984;2022-09-12T13:29:45;5;5;
42410;PMS5003;28056;51.112;0.984;2022-09-12T13:32:14;6;5;
42410;PMS5003;28056;51.112;0.984;2022-09-12T13:34:49;3;3;
42410;PMS5003;28056;51.112;0.984;2022-09-12T13:37:33;5;3;
42410;PMS5003;28056;51.112;0.984;2022-09-12T13:40:15;2;2;
42410;PMS5003;28056;51.112;0.984;2022-09-12T13:43:03;3;3;
42410;PMS5003;28056;51.112;0.984;2022-09-12T13:45:35;4;4;
42410;PMS5003;28056;51.112;0.984;2022-09-12T13:48:04;3;3;
42410;PMS5003;28056;51.112;0.984;2022-09-12T13:50:36;4;4;
42410;PMS5003;28056;51.112;0.984;2022-09-12T13:53:10;3;3;
42410;PMS5003;28056;51.112;0.984;2022-09-12T13:55:41;4;4;
42410;PMS5003;28056;51.112;0.984;2022-09-12T13:58:15;5;5;
42410;PMS5003;28056;51.112;0.984;2022-09-12T14:00:58;5;3;
42410;PMS5003;28056;51.112;0.984;2022-09-12T14:03:28;2;2;
42410;PMS5003;28056;51.112;0.984;2022-09-12T14:05:56;3;3;
42410;PMS5003;28056;51.112;0.984;2022-09-12T14:08:24;2;2;
42410;PMS5003;28056;51.112;0.984;2022-09-12T14:10:52;3;2;
42410;PMS5003;28056;51.112;0.984;2022-09-12T14:13:19;5;3;
42410;PMS5003;28056;51.112;0.984;2022-09-12T14:15:49;3;3;
42410;PMS5003;28056;51.112;0.984;2022-09-12T14:18:20;4;3;
42410;PMS5003;28056;51.112;0.984;2022-09-12T14:20:49;4;3;
42410;PMS5003;28056;51.112;0.984;2022-09-12T14:23:19;6;4;
42410;PMS5003;28056;51.112;0.984;2022-09-12T14:25:51;3;3;
42410;PMS5003;28056;51.112;0.984;2022-09-12T14:28:20;3;3;
42410;PMS5003;28056;51.112;0.984;2022-09-12T14:30:57;2;2;
42410;PMS5003;28056;51.112;0.984;2022-09-12T14:33:26;2;2;
42410;PMS5003;28056;51.112;0.984;2022-09-12T14:36:07;2;2;
42410;PMS5003;28056;51.112;0.984;2022-09-12T14:38:42;2;2;
42410;PMS5003;28056;51.112;0.984;2022-09-12T14:41:13;4;4;
42410;PMS5003;28056;51.112;0.984;2022-09-12T14:43:50;3;3;
42410;PMS5003;28056;51.112;0.984;2022-09-12T14:46:22;3;3;
42410;PMS5003;28056;51.112;0.984;2022-09-12T14:48:52;2;2;
42410;PMS5003;28056;51.112;0.984;2022-09-12T14:51:24;3;3;
42410;PMS5003;28056;51.112;0.984;2022-09-12T14:53:56;6;5;
42410;PMS5003;28056;51.112;0.984;2022-09-12T14:56:36;7;7;
42410;PMS5003;28056;51.112;0.984;2022-09-12T14:59:38;6;5;
42410;PMS5003;28056;51.112;0.984;2022-09-12T15:02:24;4;4;
42410;PMS5003;28056;51.112;0.984;2022-09-12T15:04:53;4;3;
42410;PMS5003;28056;51.112;0.984;2022-09-12T15:07:41;8;8;
42410;PMS5003;28056;51.112;0.984;2022-09-12T15:10:13;6;6;
42410;PMS5003;28056;51.112;0.984;2022-09-12T15:12:46;5;5;
42410;PMS5003;28056;51.112;0.984;2022-09-12T15:15:14;6;6;
42410;PMS5003;28056;51.112;0.984;2022-09-12T15:17:43;4;4;
42410;PMS5003;28056;51.112;0.984;2022-09-12T15:20:11;4;4;
42410;PMS5003;28056;51.112;0.984;2022-09-12T15:22:39;3;3;
42410;PMS5003;28056;51.112;0.984;2022-09-12T15:25:08;4;4;
42410;PMS5003;28056;51.112;0.984;2022-09-12T15:27:38;3;3;
42410;PMS5003;28056;51.112;0.984;2022-09-12T15:30:05;4;4;
42410;PMS5003;28056;51.112;0.984;2022-09-12T15:32:33;3;3;
42410;PMS5003;28056;51.112;0.984;2022-09-12T15:35:02;4;4;
42410;PMS5003;28056;51.112;0.984;2022-09-12T15:37:29;4;4;
42410;PMS5003;28056;51.112;0.984;2022-09-12T15:39:56;3;3;
42410;PMS5003;28056;51.112;0.984;2022-09-12T15:42:24;4;4;
42410;PMS5003;28056;51.112;0.984;2022-09-12T15:44:55;5;4;
42410;PMS5003;28056;51.112;0.984;2022-09-12T15:47:22;2;2;
42410;PMS5003;28056;51.112;0.984;2022-09-12T15:49:49;2;2;
42410;PMS5003;28056;51.112;0.984;2022-09-12T15:52:17;1;1;
42410;PMS5003;28056;51.112;0.984;2022-09-12T15:54:45;3;3;
42410;PMS5003;28056;51.112;0.984;2022-09-12T15:57:12;3;3;
42410;PMS5003;28056;51.112;0.984;2022-09-12T15:59:40;4;4;
42410;PMS5003;28056;51.112;0.984;2022-09-12T16:02:08;5;4;
42410;PMS5003;28056;51.112;0.984;2022-09-12T16:04:35;3;3;
42410;PMS5003;28056;51.112;0.984;2022-09-12T16:07:03;3;3;
42410;PMS5003;28056;51.112;0.984;2022-09-12T16:09:30;6;3;
42410;PMS5003;28056;51.112;0.984;2022-09-12T16:11:57;2;2;
42410;PMS5003;28056;51.112;0.984;2022-09-12T16:14:25;3;3;
42410;PMS5003;28056;51.112;0.984;2022-09-12T16:16:53;4;4;
42410;PMS5003;28056;51.112;0.984;2022-09-12T16:19:21;3;3;
42410;PMS5003;28056;51.112;0.984;2022-09-12T16:21:48;4;4;
42410;PMS5003;28056;51.112;0.984;2022-09-12T16:24:16;4;2;
42410;PMS5003;28056;51.112;0.984;2022-09-12T16:26:44;2;2;
42410;PMS5003;28056;51.112;0.984;2022-09-12T16:29:11;2;2;
42410;PMS5003;28056;51.112;0.984;2022-09-12T16:31:39;3;3;
42410;PMS5003;28056;51.112;0.984;2022-09-12T16:34:07;2;2;
42410;PMS5003;28056;51.112;0.984;2022-09-12T16:36:36;1;1;
42410;PMS5003;28056;51.112;0.984;2022-09-12T16:39:03;5;3;
42410;PMS5003;28056;51.112;0.984;2022-09-12T16:41:31;3;2;
42410;PMS5003;28056;51.112;0.984;2022-09-12T16:43:58;1;1;
42410;PMS5003;28056;51.112;0.984;2022-09-12T16:46:26;5;4;
42410;PMS5003;28056;51.112;0.984;2022-09-12T16:48:55;1;1;
42410;PMS5003;28056;51.112;0.984;2022-09-12T16:51:24;3;3;
42410;PMS5003;28056;51.112;0.984;2022-09-12T16:53:53;3;3;
42410;PMS5003;28056;51.112;0.984;2022-09-12T16:56:22;4;2;
42410;PMS5003;28056;51.112;0.984;2022-09-12T16:58:50;3;3;
42410;PMS5003;28056;51.112;0.984;2022-09-12T17:01:17;2;2;
42410;PMS5003;28056;51.112;0.984;2022-09-12T17:03:46;3;3;